sensor_id;sensor_type;location;lat;lon;timestamp;temperature;humidity
65369;HTU21D;51970;53.484;49.488;2023-02-12T00:01:50;-7.70;76.25
65369;HTU21D;51970;53.484;49.488;2023-02-12T00:04:16;-7.72;76.17
65369;HTU21D;51970;53.484;49.488;2023-02-12T00:06:42;-7.69;76.27
65369;HTU21D;51970;53.484;49.488;2023-02-12T00:09:08;-7.57;75.86
65369;HTU21D;51970;53.484;49.488;2023-02-12T00:11:34;-7.66;75.84
65369;HTU21D;51970;53.484;49.488;2023-02-12T00:14:00;-7.64;76.03
65369;HTU21D;51970;53.484;49.488;2023-02-12T00:16:27;-7.67;76.39
65369;HTU21D;51970;53.484;49.488;2023-02-12T00:18:55;-7.63;76.35
65369;HTU21D;51970;53.484;49.488;2023-02-12T00:21:22;-7.56;76.02
65369;HTU21D;51970;53.484;49.488;2023-02-12T00:23:48;-7.47;75.82
65369;HTU21D;51970;53.484;49.488;2023-02-12T00:26:17;-7.60;75.83
65369;HTU21D;51970;53.484;49.488;2023-02-12T00:28:44;-7.47;76.07
65369;HTU21D;51970;53.484;49.488;2023-02-12T00:31:15;-7.62;76.18
65369;HTU21D;51970;53.484;49.488;2023-02-12T00:33:42;-7.64;75.90
65369;HTU21D;51970;53.484;49.488;2023-02-12T00:36:09;-7.48;75.79
65369;HTU21D;51970;53.484;49.488;2023-02-12T00:38:38;-7.48;75.40
65369;HTU21D;51970;53.484;49.488;2023-02-12T00:41:04;-7.60;74.91
65369;HTU21D;51970;53.484;49.488;2023-02-12T00:43:31;-7.52;74.58
65369;HTU21D;51970;53.484;49.488;2023-02-12T00:45:57;-7.74;74.84
65369;HTU21D;51970;53.484;49.488;2023-02-12T00:48:23;-7.92;74.81
65369;HTU21D;51970;53.484;49.488;2023-02-12T00:50:50;-8.04;75.12
65369;HTU21D;51970;53.484;49.488;2023-02-12T00:53:16;-8.21;75.41
65369;HTU21D;51970;53.484;49.488;2023-02-12T00:55:42;-8.12;75.97
65369;HTU21D;51970;53.484;49.488;2023-02-12T00:58:09;-8.22;75.99
65369;HTU21D;51970;53.484;49.488;2023-02-12T01:00:35;-8.26;75.79
65369;HTU21D;51970;53.484;49.488;2023-02-12T01:03:01;-8.37;75.86
65369;HTU21D;51970;53.484;49.488;2023-02-12T01:05:28;-8.40;76.12
65369;HTU21D;51970;53.484;49.488;2023-02-12T01:07:55;-8.36;76.03
65369;HTU21D;51970;53.484;49.488;2023-02-12T01:10:21;-8.40;75.89
65369;HTU21D;51970;53.484;49.488;2023-02-12T01:12:48;-8.40;75.92
65369;HTU21D;51970;53.484;49.488;2023-02-12T01:15:15;-8.37;75.99
65369;HTU21D;51970;53.484;49.488;2023-02-12T01:17:42;-8.31;75.90
65369;HTU21D;51970;53.484;49.488;2023-02-12T01:20:12;-8.36;75.95
65369;HTU21D;51970;53.484;49.488;2023-02-12T01:22:38;-8.38;75.95
65369;HTU21D;51970;53.484;49.488;2023-02-12T01:25:05;-8.34;76.31
65369;HTU21D;51970;53.484;49.488;2023-02-12T01:27:32;-8.30;75.99
65369;HTU21D;51970;53.484;49.488;2023-02-12T01:29:58;-7.64;75.95
65369;HTU21D;51970;53.484;49.488;2023-02-12T01:32:24;-8.05;76.01
65369;HTU21D;51970;53.484;49.488;2023-02-12T01:34:50;-8.36;76.07
65369;HTU21D;51970;53.484;49.488;2023-02-12T01:37:16;-8.40;75.90
65369;HTU21D;51970;53.484;49.488;2023-02-12T01:39:42;-8.43;76.03
65369;HTU21D;51970;53.484;49.488;2023-02-12T01:42:13;-6.88;76.30
65369;HTU21D;51970;53.484;49.488;2023-02-12T01:47:55;-8.48;76.49
65369;HTU21D;51970;53.484;49.488;2023-02-12T01:50:22;-8.39;76.52
65369;HTU21D;51970;53.484;49.488;2023-02-12T01:52:51;-8.31;76.49
65369;HTU21D;51970;53.484;49.488;2023-02-12T01:55:19;-8.34;76.35
65369;HTU21D;51970;53.484;49.488;2023-02-12T01:57:47;-8.26;76.08
65369;HTU21D;51970;53.484;49.488;2023-02-12T02:00:17;-8.39;75.92
65369;HTU21D;51970;53.484;49.488;2023-02-12T02:02:46;-8.29;75.86
65369;HTU21D;51970;53.484;49.488;2023-02-12T02:05:19;-8.36;75.94
65369;HTU21D;51970;53.484;49.488;2023-02-12T02:07:47;-8.38;75.80
65369;HTU21D;51970;53.484;49.488;2023-02-12T02:10:14;-8.45;75.83
65369;HTU21D;51970;53.484;49.488;2023-02-12T02:12:40;-8.45;75.94
65369;HTU21D;51970;53.484;49.488;2023-02-12T02:15:26;-8.37;76.20
65369;HTU21D;51970;53.484;49.488;2023-02-12T02:18:09;-8.29;76.03
65369;HTU21D;51970;53.484;49.488;2023-02-12T02:40:26;-7.08;76.05
65369;HTU21D;51970;53.484;49.488;2023-02-12T02:43:09;-8.13;75.77
65369;HTU21D;51970;53.484;49.488;2023-02-12T02:45:51;-8.16;75.71
65369;HTU21D;51970;53.484;49.488;2023-02-12T02:48:26;-8.22;75.27
65369;HTU21D;51970;53.484;49.488;2023-02-12T02:51:00;-8.33;75.42
65369;HTU21D;51970;53.484;49.488;2023-02-12T02:53:42;-8.46;75.57
65369;HTU21D;51970;53.484;49.488;2023-02-12T02:56:14;-8.57;75.95
65369;HTU21D;51970;53.484;49.488;2023-02-12T02:58:45;-8.64;76.22
65369;HTU21D;51970;53.484;49.488;2023-02-12T03:01:19;-8.50;76.63
65369;HTU21D;51970;53.484;49.488;2023-02-12T03:04:03;-8.46;76.39
65369;HTU21D;51970;53.484;49.488;2023-02-12T03:06:49;-8.34;76.15
65369;HTU21D;51970;53.484;49.488;2023-02-12T03:09:20;-8.22;75.78
65369;HTU21D;51970;53.484;49.488;2023-02-12T03:11:47;-8.40;75.79
65369;HTU21D;51970;53.484;49.488;2023-02-12T03:14:20;-7.96;76.12
65369;HTU21D;51970;53.484;49.488;2023-02-12T03:16:59;-8.48;76.18
65369;HTU21D;51970;53.484;49.488;2023-02-12T03:19:38;-8.49;76.05
65369;HTU21D;51970;53.484;49.488;2023-02-12T03:22:11;-8.44;75.65
65369;HTU21D;51970;53.484;49.488;2023-02-12T03:25:00;-8.53;75.53
65369;HTU21D;51970;53.484;49.488;2023-02-12T03:29:56;-8.55;75.29
65369;HTU21D;51970;53.484;49.488;2023-02-12T03:35:21;-8.59;75.51
65369;HTU21D;51970;53.484;49.488;2023-02-12T03:37:55;-8.62;75.56
65369;HTU21D;51970;53.484;49.488;2023-02-12T03:40:35;-8.58;75.13
65369;HTU21D;51970;53.484;49.488;2023-02-12T03:43:18;-8.67;75.12
65369;HTU21D;51970;53.484;49.488;2023-02-12T03:45:51;-8.66;74.67
65369;HTU21D;51970;53.484;49.488;2023-02-12T03:48:51;-8.74;74.67
65369;HTU21D;51970;53.484;49.488;2023-02-12T03:51:41;-8.70;74.69
65369;HTU21D;51970;53.484;49.488;2023-02-12T03:54:12;-8.77;74.81
65369;HTU21D;51970;53.484;49.488;2023-02-12T03:59:28;-8.78;74.59
65369;HTU21D;51970;53.484;49.488;2023-02-12T04:01:57;-8.51;74.52
65369;HTU21D;51970;53.484;49.488;2023-02-12T04:04:24;-8.78;74.30
65369;HTU21D;51970;53.484;49.488;2023-02-12T04:06:52;-8.79;74.55
65369;HTU21D;51970;53.484;49.488;2023-02-12T04:09:19;-8.66;74.15
65369;HTU21D;51970;53.484;49.488;2023-02-12T04:12:06;-8.86;74.45
65369;HTU21D;51970;53.484;49.488;2023-02-12T04:17:14;-8.64;74.15
65369;HTU21D;51970;53.484;49.488;2023-02-12T04:22:52;-8.68;73.80
65369;HTU21D;51970;53.484;49.488;2023-02-12T04:30:46;-8.59;74.31
65369;HTU21D;51970;53.484;49.488;2023-02-12T04:33:19;-8.50;73.98
65369;HTU21D;51970;53.484;49.488;2023-02-12T04:38:45;-8.57;73.83
65369;HTU21D;51970;53.484;49.488;2023-02-12T04:41:13;-8.59;74.02
65369;HTU21D;51970;53.484;49.488;2023-02-12T04:43:39;-8.43;74.18
65369;HTU21D;51970;53.484;49.488;2023-02-12T04:46:07;-8.06;73.45
65369;HTU21D;51970;53.484;49.488;2023-02-12T04:48:35;-8.44;73.41
65369;HTU21D;51970;53.484;49.488;2023-02-12T04:51:02;-8.42;73.45
65369;HTU21D;51970;53.484;49.488;2023-02-12T04:53:28;-8.24;73.22
65369;HTU21D;51970;53.484;49.488;2023-02-12T04:55:54;-8.25;72.80
65369;HTU21D;51970;53.484;49.488;2023-02-12T04:58:20;-8.27;72.66
65369;HTU21D;51970;53.484;49.488;2023-02-12T05:00:46;-6.76;72.66
65369;HTU21D;51970;53.484;49.488;2023-02-12T05:03:12;-8.34;72.71
65369;HTU21D;51970;53.484;49.488;2023-02-12T05:05:38;-8.38;72.92
65369;HTU21D;51970;53.484;49.488;2023-02-12T05:08:05;-7.34;73.12
65369;HTU21D;51970;53.484;49.488;2023-02-12T05:10:32;-8.20;73.12
65369;HTU21D;51970;53.484;49.488;2023-02-12T05:13:01;-8.21;73.12
65369;HTU21D;51970;53.484;49.488;2023-02-12T05:15:29;-8.18;73.38
65369;HTU21D;51970;53.484;49.488;2023-02-12T05:17:55;-7.93;73.28
65369;HTU21D;51970;53.484;49.488;2023-02-12T05:20:21;-7.98;72.72
65369;HTU21D;51970;53.484;49.488;2023-02-12T05:22:51;-7.89;72.74
65369;HTU21D;51970;53.484;49.488;2023-02-12T05:25:17;-7.84;73.02
65369;HTU21D;51970;53.484;49.488;2023-02-12T05:27:44;-7.54;72.41
65369;HTU21D;51970;53.484;49.488;2023-02-12T05:30:10;-7.55;72.21
65369;HTU21D;51970;53.484;49.488;2023-02-12T05:32:36;-7.44;71.87
65369;HTU21D;51970;53.484;49.488;2023-02-12T05:35:03;-7.29;72.01
65369;HTU21D;51970;53.484;49.488;2023-02-12T05:37:29;-7.09;71.67
65369;HTU21D;51970;53.484;49.488;2023-02-12T05:39:56;-6.97;71.61
65369;HTU21D;51970;53.484;49.488;2023-02-12T05:42:22;-6.70;71.15
65369;HTU21D;51970;53.484;49.488;2023-02-12T05:44:49;-6.77;71.00
65369;HTU21D;51970;53.484;49.488;2023-02-12T05:47:15;-6.73;71.13
65369;HTU21D;51970;53.484;49.488;2023-02-12T05:49:41;-6.72;71.06
65369;HTU21D;51970;53.484;49.488;2023-02-12T05:52:07;-6.71;71.38
65369;HTU21D;51970;53.484;49.488;2023-02-12T05:54:33;-6.64;71.60
65369;HTU21D;51970;53.484;49.488;2023-02-12T05:57:00;-6.51;71.54
65369;HTU21D;51970;53.484;49.488;2023-02-12T05:59:26;-6.39;70.79
65369;HTU21D;51970;53.484;49.488;2023-02-12T06:01:52;-6.41;70.91
65369;HTU21D;51970;53.484;49.488;2023-02-12T06:04:25;-6.33;71.00
65369;HTU21D;51970;53.484;49.488;2023-02-12T06:06:55;-6.14;70.66
65369;HTU21D;51970;53.484;49.488;2023-02-12T06:09:26;-5.15;70.03
65369;HTU21D;51970;53.484;49.488;2023-02-12T06:11:52;-5.87;69.81
65369;HTU21D;51970;53.484;49.488;2023-02-12T06:14:19;-5.65;69.05
65369;HTU21D;51970;53.484;49.488;2023-02-12T06:16:49;-5.56;68.35
65369;HTU21D;51970;53.484;49.488;2023-02-12T06:19:17;-5.54;68.37
65369;HTU21D;51970;53.484;49.488;2023-02-12T06:21:44;-5.67;68.99
65369;HTU21D;51970;53.484;49.488;2023-02-12T06:24:11;-5.20;69.50
65369;HTU21D;51970;53.484;49.488;2023-02-12T06:26:38;-5.42;69.16
65369;HTU21D;51970;53.484;49.488;2023-02-12T06:29:04;-5.20;68.36
65369;HTU21D;51970;53.484;49.488;2023-02-12T06:31:33;-4.98;67.73
65369;HTU21D;51970;53.484;49.488;2023-02-12T06:34:01;-4.93;67.39
65369;HTU21D;51970;53.484;49.488;2023-02-12T06:36:28;-4.80;67.51
65369;HTU21D;51970;53.484;49.488;2023-02-12T06:38:54;-4.78;67.06
65369;HTU21D;51970;53.484;49.488;2023-02-12T06:41:20;-4.76;67.39
65369;HTU21D;51970;53.484;49.488;2023-02-12T06:43:57;-4.60;67.10
65369;HTU21D;51970;53.484;49.488;2023-02-12T06:46:31;-4.38;66.55
65369;HTU21D;51970;53.484;49.488;2023-02-12T06:48:59;-4.27;66.39
65369;HTU21D;51970;53.484;49.488;2023-02-12T06:51:28;-4.19;66.25
65369;HTU21D;51970;53.484;49.488;2023-02-12T06:53:56;-4.39;66.10
65369;HTU21D;51970;53.484;49.488;2023-02-12T06:56:24;-4.38;66.30
65369;HTU21D;51970;53.484;49.488;2023-02-12T06:58:56;-4.16;66.45
65369;HTU21D;51970;53.484;49.488;2023-02-12T07:01:25;-4.09;65.75
65369;HTU21D;51970;53.484;49.488;2023-02-12T07:03:54;-4.22;66.11
65369;HTU21D;51970;53.484;49.488;2023-02-12T07:06:22;-4.09;66.01
65369;HTU21D;51970;53.484;49.488;2023-02-12T07:08:56;-4.01;65.56
65369;HTU21D;51970;53.484;49.488;2023-02-12T07:11:31;-4.09;65.91
65369;HTU21D;51970;53.484;49.488;2023-02-12T07:13:58;-4.26;66.48
65369;HTU21D;51970;53.484;49.488;2023-02-12T07:16:24;-4.42;67.11
65369;HTU21D;51970;53.484;49.488;2023-02-12T07:18:51;-4.53;67.54
65369;HTU21D;51970;53.484;49.488;2023-02-12T07:21:17;-4.36;67.62
65369;HTU21D;51970;53.484;49.488;2023-02-12T07:23:48;-4.36;67.62
65369;HTU21D;51970;53.484;49.488;2023-02-12T07:26:15;-4.12;67.83
65369;HTU21D;51970;53.484;49.488;2023-02-12T07:28:42;-3.84;66.31
65369;HTU21D;51970;53.484;49.488;2023-02-12T07:31:19;-3.63;66.18
65369;HTU21D;51970;53.484;49.488;2023-02-12T07:33:47;-3.99;66.75
65369;HTU21D;51970;53.484;49.488;2023-02-12T07:36:17;-4.05;66.96
65369;HTU21D;51970;53.484;49.488;2023-02-12T07:38:44;-4.15;67.56
65369;HTU21D;51970;53.484;49.488;2023-02-12T07:41:16;-4.15;67.92
65369;HTU21D;51970;53.484;49.488;2023-02-12T07:43:45;-3.99;67.49
65369;HTU21D;51970;53.484;49.488;2023-02-12T07:46:16;-4.00;67.66
65369;HTU21D;51970;53.484;49.488;2023-02-12T07:48:45;-3.72;67.20
65369;HTU21D;51970;53.484;49.488;2023-02-12T07:51:15;-3.81;67.20
65369;HTU21D;51970;53.484;49.488;2023-02-12T07:53:44;-3.77;67.31
65369;HTU21D;51970;53.484;49.488;2023-02-12T07:56:15;-3.68;67.26
65369;HTU21D;51970;53.484;49.488;2023-02-12T07:58:43;-3.70;67.00
65369;HTU21D;51970;53.484;49.488;2023-02-12T08:01:15;-3.89;67.58
65369;HTU21D;51970;53.484;49.488;2023-02-12T08:03:43;-3.71;66.98
65369;HTU21D;51970;53.484;49.488;2023-02-12T08:06:26;-3.79;67.54
65369;HTU21D;51970;53.484;49.488;2023-02-12T08:08:55;-3.79;68.10
65369;HTU21D;51970;53.484;49.488;2023-02-12T08:11:22;-3.71;67.43
65369;HTU21D;51970;53.484;49.488;2023-02-12T08:13:49;-3.64;67.61
65369;HTU21D;51970;53.484;49.488;2023-02-12T08:16:19;-3.71;67.28
65369;HTU21D;51970;53.484;49.488;2023-02-12T08:18:46;-3.77;67.47
65369;HTU21D;51970;53.484;49.488;2023-02-12T08:21:18;-3.74;67.52
65369;HTU21D;51970;53.484;49.488;2023-02-12T08:23:49;-3.67;67.49
65369;HTU21D;51970;53.484;49.488;2023-02-12T08:26:32;-3.77;67.48
65369;HTU21D;51970;53.484;49.488;2023-02-12T08:29:19;-3.74;67.67
65369;HTU21D;51970;53.484;49.488;2023-02-12T08:31:48;-3.90;67.59
65369;HTU21D;51970;53.484;49.488;2023-02-12T08:34:28;-3.87;68.20
65369;HTU21D;51970;53.484;49.488;2023-02-12T08:36:55;-3.69;67.84
65369;HTU21D;51970;53.484;49.488;2023-02-12T08:39:23;-3.40;66.92
65369;HTU21D;51970;53.484;49.488;2023-02-12T08:41:59;-3.07;66.17
65369;HTU21D;51970;53.484;49.488;2023-02-12T08:44:29;-2.75;65.10
65369;HTU21D;51970;53.484;49.488;2023-02-12T08:46:56;-2.67;64.21
65369;HTU21D;51970;53.484;49.488;2023-02-12T08:49:27;-2.83;64.53
65369;HTU21D;51970;53.484;49.488;2023-02-12T08:51:55;-2.45;64.25
65369;HTU21D;51970;53.484;49.488;2023-02-12T08:54:24;-2.58;64.28
65369;HTU21D;51970;53.484;49.488;2023-02-12T08:56:59;-2.14;63.13
65369;HTU21D;51970;53.484;49.488;2023-02-12T08:59:31;-2.28;62.59
65369;HTU21D;51970;53.484;49.488;2023-02-12T09:02:00;-2.58;63.18
65369;HTU21D;51970;53.484;49.488;2023-02-12T09:04:34;-2.73;64.13
65369;HTU21D;51970;53.484;49.488;2023-02-12T09:07:01;-2.54;63.73
65369;HTU21D;51970;53.484;49.488;2023-02-12T09:09:27;-2.74;63.34
65369;HTU21D;51970;53.484;49.488;2023-02-12T09:11:56;-2.64;63.92
65369;HTU21D;51970;53.484;49.488;2023-02-12T09:14:22;-2.65;63.70
65369;HTU21D;51970;53.484;49.488;2023-02-12T09:16:56;-2.90;64.41
65369;HTU21D;51970;53.484;49.488;2023-02-12T09:19:44;-2.72;64.21
65369;HTU21D;51970;53.484;49.488;2023-02-12T09:22:11;-2.48;63.94
65369;HTU21D;51970;53.484;49.488;2023-02-12T09:24:38;-2.42;63.05
65369;HTU21D;51970;53.484;49.488;2023-02-12T09:27:06;-2.47;63.03
65369;HTU21D;51970;53.484;49.488;2023-02-12T09:29:32;-2.15;62.77
65369;HTU21D;51970;53.484;49.488;2023-02-12T09:32:01;-2.32;62.24
65369;HTU21D;51970;53.484;49.488;2023-02-12T09:34:33;-2.35;62.50
65369;HTU21D;51970;53.484;49.488;2023-02-12T09:36:59;-2.72;63.46
65369;HTU21D;51970;53.484;49.488;2023-02-12T09:39:26;-2.75;64.49
65369;HTU21D;51970;53.484;49.488;2023-02-12T09:45:15;-2.19;63.36
65369;HTU21D;51970;53.484;49.488;2023-02-12T09:51:05;-1.74;61.67
65369;HTU21D;51970;53.484;49.488;2023-02-12T09:53:36;-2.00;61.70
65369;HTU21D;51970;53.484;49.488;2023-02-12T09:56:25;-2.34;63.04
65369;HTU21D;51970;53.484;49.488;2023-02-12T09:59:21;-2.29;63.36
65369;HTU21D;51970;53.484;49.488;2023-02-12T10:01:51;-2.10;63.04
65369;HTU21D;51970;53.484;49.488;2023-02-12T10:04:17;-2.32;62.97
65369;HTU21D;51970;53.484;49.488;2023-02-12T10:06:53;-2.26;63.39
65369;HTU21D;51970;53.484;49.488;2023-02-12T10:20:51;-1.62;61.69
65369;HTU21D;51970;53.484;49.488;2023-02-12T10:23:41;-1.62;61.59
65369;HTU21D;51970;53.484;49.488;2023-02-12T10:28:42;-1.94;62.57
65369;HTU21D;51970;53.484;49.488;2023-02-12T10:31:26;-1.98;63.34
65369;HTU21D;51970;53.484;49.488;2023-02-12T10:33:55;-1.74;62.70
65369;HTU21D;51970;53.484;49.488;2023-02-12T10:36:42;-1.63;61.98
65369;HTU21D;51970;53.484;49.488;2023-02-12T10:41:40;-1.93;63.54
65369;HTU21D;51970;53.484;49.488;2023-02-12T10:44:11;-2.22;63.93
65369;HTU21D;51970;53.484;49.488;2023-02-12T10:46:41;-2.22;64.53
65369;HTU21D;51970;53.484;49.488;2023-02-12T10:49:10;-2.32;64.32
65369;HTU21D;51970;53.484;49.488;2023-02-12T10:54:30;-1.97;64.95
65369;HTU21D;51970;53.484;49.488;2023-02-12T10:56:58;-2.24;65.01
65369;HTU21D;51970;53.484;49.488;2023-02-12T10:59:27;-1.95;64.92
65369;HTU21D;51970;53.484;49.488;2023-02-12T11:01:55;-2.10;64.50
65369;HTU21D;51970;53.484;49.488;2023-02-12T11:04:26;-2.09;65.08
65369;HTU21D;51970;53.484;49.488;2023-02-12T11:07:02;-1.90;64.82
65369;HTU21D;51970;53.484;49.488;2023-02-12T11:09:36;-1.68;64.37
65369;HTU21D;51970;53.484;49.488;2023-02-12T11:12:33;-1.53;64.08
65369;HTU21D;51970;53.484;49.488;2023-02-12T11:15:06;-1.34;63.10
65369;HTU21D;51970;53.484;49.488;2023-02-12T11:17:39;-1.54;63.38
65369;HTU21D;51970;53.484;49.488;2023-02-12T11:22:59;-1.72;64.50
65369;HTU21D;51970;53.484;49.488;2023-02-12T11:25:34;-1.84;65.17
65369;HTU21D;51970;53.484;49.488;2023-02-12T11:28:16;-1.75;65.51
65369;HTU21D;51970;53.484;49.488;2023-02-12T11:30:53;-1.82;65.12
65369;HTU21D;51970;53.484;49.488;2023-02-12T11:33:34;-1.77;65.14
65369;HTU21D;51970;53.484;49.488;2023-02-12T11:36:04;-1.54;64.57
65369;HTU21D;51970;53.484;49.488;2023-02-12T11:38:39;-1.36;64.07
65369;HTU21D;51970;53.484;49.488;2023-02-12T11:41:32;-1.54;64.18
65369;HTU21D;51970;53.484;49.488;2023-02-12T11:44:37;-1.45;64.62
65369;HTU21D;51970;53.484;49.488;2023-02-12T11:47:10;-1.50;64.56
65369;HTU21D;51970;53.484;49.488;2023-02-12T11:50:06;-1.44;64.30
65369;HTU21D;51970;53.484;49.488;2023-02-12T11:52:35;-1.53;64.56
65369;HTU21D;51970;53.484;49.488;2023-02-12T11:55:17;-1.77;64.43
65369;HTU21D;51970;53.484;49.488;2023-02-12T12:00:45;-1.97;65.49
65369;HTU21D;51970;53.484;49.488;2023-02-12T12:06:37;-2.37;66.89
65369;HTU21D;51970;53.484;49.488;2023-02-12T12:14:30;-2.58;67.43
65369;HTU21D;51970;53.484;49.488;2023-02-12T12:17:09;-2.66;67.85
65369;HTU21D;51970;53.484;49.488;2023-02-12T12:20:13;-2.73;68.08
65369;HTU21D;51970;53.484;49.488;2023-02-12T12:22:46;-2.74;68.07
65369;HTU21D;51970;53.484;49.488;2023-02-12T12:33:47;-2.93;68.46
65369;HTU21D;51970;53.484;49.488;2023-02-12T12:47:21;-3.21;69.49
65369;HTU21D;51970;53.484;49.488;2023-02-12T13:10:15;-3.66;70.22
65369;HTU21D;51970;53.484;49.488;2023-02-12T13:13:12;-3.66;70.18
65369;HTU21D;51970;53.484;49.488;2023-02-12T13:21:48;-3.71;70.55
65369;HTU21D;51970;53.484;49.488;2023-02-12T13:24:29;-3.75;70.36
65369;HTU21D;51970;53.484;49.488;2023-02-12T13:27:03;-3.82;70.63
65369;HTU21D;51970;53.484;49.488;2023-02-12T13:29:43;-3.85;70.92
65369;HTU21D;51970;53.484;49.488;2023-02-12T13:32:21;-3.92;70.76
65369;HTU21D;51970;53.484;49.488;2023-02-12T13:34:53;-3.89;70.80
65369;HTU21D;51970;53.484;49.488;2023-02-12T13:37:41;-3.99;70.75
65369;HTU21D;51970;53.484;49.488;2023-02-12T13:40:38;-4.10;71.18
65369;HTU21D;51970;53.484;49.488;2023-02-12T13:43:38;-4.13;71.29
65369;HTU21D;51970;53.484;49.488;2023-02-12T13:46:13;-4.19;71.45
65369;HTU21D;51970;53.484;49.488;2023-02-12T13:48:52;-4.19;71.55
65369;HTU21D;51970;53.484;49.488;2023-02-12T13:51:48;-4.21;71.70
65369;HTU21D;51970;53.484;49.488;2023-02-12T13:57:19;-4.12;71.61
65369;HTU21D;51970;53.484;49.488;2023-02-12T13:59:53;-4.20;71.74
65369;HTU21D;51970;53.484;49.488;2023-02-12T14:02:40;-4.24;71.69
65369;HTU21D;51970;53.484;49.488;2023-02-12T14:05:26;-4.19;71.77
65369;HTU21D;51970;53.484;49.488;2023-02-12T14:07:57;-4.25;71.78
65369;HTU21D;51970;53.484;49.488;2023-02-12T14:10:30;-4.31;71.85
65369;HTU21D;51970;53.484;49.488;2023-02-12T14:13:21;-4.31;71.84
65369;HTU21D;51970;53.484;49.488;2023-02-12T14:15:52;-4.38;72.26
65369;HTU21D;51970;53.484;49.488;2023-02-12T14:18:28;-4.42;72.33
65369;HTU21D;51970;53.484;49.488;2023-02-12T14:23:37;-4.32;72.16
65369;HTU21D;51970;53.484;49.488;2023-02-12T14:26:07;-4.40;72.16
65369;HTU21D;51970;53.484;49.488;2023-02-12T14:34:36;-4.56;72.36
65369;HTU21D;51970;53.484;49.488;2023-02-12T14:36:43;-4.53;72.64
65369;HTU21D;51970;53.484;49.488;2023-02-12T14:44:45;-4.70;72.71
65369;HTU21D;51970;53.484;49.488;2023-02-12T14:49:59;-4.65;72.43
65369;HTU21D;51970;53.484;49.488;2023-02-12T14:52:30;-4.76;72.85
65369;HTU21D;51970;53.484;49.488;2023-02-12T14:55:00;-4.66;72.95
65369;HTU21D;51970;53.484;49.488;2023-02-12T14:57:33;-4.57;72.93
65369;HTU21D;51970;53.484;49.488;2023-02-12T15:02:53;-4.76;72.81
65369;HTU21D;51970;53.484;49.488;2023-02-12T15:05:27;-4.75;73.14
65369;HTU21D;51970;53.484;49.488;2023-02-12T15:22:25;-4.80;73.30
65369;HTU21D;51970;53.484;49.488;2023-02-12T15:25:19;-4.81;73.15
65369;HTU21D;51970;53.484;49.488;2023-02-12T15:27:48;-4.65;73.01
65369;HTU21D;51970;53.484;49.488;2023-02-12T15:30:25;-4.82;73.15
65369;HTU21D;51970;53.484;49.488;2023-02-12T15:33:01;-4.80;73.11
65369;HTU21D;51970;53.484;49.488;2023-02-12T15:35:32;-4.80;72.96
65369;HTU21D;51970;53.484;49.488;2023-02-12T15:37:59;-4.78;73.00
65369;HTU21D;51970;53.484;49.488;2023-02-12T15:40:30;-4.87;73.05
65369;HTU21D;51970;53.484;49.488;2023-02-12T15:43:17;-4.59;73.46
65369;HTU21D;51970;53.484;49.488;2023-02-12T15:45:50;-4.89;73.54
65369;HTU21D;51970;53.484;49.488;2023-02-12T15:48:21;-4.95;73.42
65369;HTU21D;51970;53.484;49.488;2023-02-12T15:50:54;-4.97;73.24
65369;HTU21D;51970;53.484;49.488;2023-02-12T15:53:25;-4.97;73.22
65369;HTU21D;51970;53.484;49.488;2023-02-12T15:55:57;-5.07;73.57
65369;HTU21D;51970;53.484;49.488;2023-02-12T15:58:28;-5.07;74.00
65369;HTU21D;51970;53.484;49.488;2023-02-12T16:01:01;-5.01;73.48
65369;HTU21D;51970;53.484;49.488;2023-02-12T16:03:33;-5.03;73.39
65369;HTU21D;51970;53.484;49.488;2023-02-12T16:06:06;-5.04;73.84
65369;HTU21D;51970;53.484;49.488;2023-02-12T16:08:38;-5.08;74.09
65369;HTU21D;51970;53.484;49.488;2023-02-12T16:11:06;-5.02;74.02
65369;HTU21D;51970;53.484;49.488;2023-02-12T16:13:45;-5.13;73.69
65369;HTU21D;51970;53.484;49.488;2023-02-12T16:16:16;-5.18;74.24
65369;HTU21D;51970;53.484;49.488;2023-02-12T16:18:42;-5.08;74.05
65369;HTU21D;51970;53.484;49.488;2023-02-12T16:21:15;-4.98;73.62
65369;HTU21D;51970;53.484;49.488;2023-02-12T16:23:47;-5.02;73.48
65369;HTU21D;51970;53.484;49.488;2023-02-12T16:26:21;-5.03;73.51
65369;HTU21D;51970;53.484;49.488;2023-02-12T16:28:56;-5.14;73.61
65369;HTU21D;51970;53.484;49.488;2023-02-12T16:31:24;-5.15;73.73
65369;HTU21D;51970;53.484;49.488;2023-02-12T16:33:53;-5.22;73.61
65369;HTU21D;51970;53.484;49.488;2023-02-12T16:38:59;-5.00;73.83
65369;HTU21D;51970;53.484;49.488;2023-02-12T16:41:31;-5.28;73.80
65369;HTU21D;51970;53.484;49.488;2023-02-12T16:46:28;-5.30;73.77
65369;HTU21D;51970;53.484;49.488;2023-02-12T16:48:57;-5.29;73.66
65369;HTU21D;51970;53.484;49.488;2023-02-12T16:51:27;-5.27;73.54
65369;HTU21D;51970;53.484;49.488;2023-02-12T16:53:56;-5.33;73.62
65369;HTU21D;51970;53.484;49.488;2023-02-12T16:56:25;-5.40;73.88
65369;HTU21D;51970;53.484;49.488;2023-02-12T16:58:58;-5.48;73.90
65369;HTU21D;51970;53.484;49.488;2023-02-12T17:01:30;-5.19;74.22
65369;HTU21D;51970;53.484;49.488;2023-02-12T17:03:58;-5.53;74.25
65369;HTU21D;51970;53.484;49.488;2023-02-12T17:06:30;-5.57;74.22
65369;HTU21D;51970;53.484;49.488;2023-02-12T17:08:57;-5.53;74.25
65369;HTU21D;51970;53.484;49.488;2023-02-12T17:11:24;-5.49;74.00
65369;HTU21D;51970;53.484;49.488;2023-02-12T17:13:53;-5.50;73.83
65369;HTU21D;51970;53.484;49.488;2023-02-12T17:16:20;-5.52;73.99
65369;HTU21D;51970;53.484;49.488;2023-02-12T17:18:46;-5.56;73.93
65369;HTU21D;51970;53.484;49.488;2023-02-12T17:21:36;-5.30;74.00
65369;HTU21D;51970;53.484;49.488;2023-02-12T17:24:08;-5.64;74.06
65369;HTU21D;51970;53.484;49.488;2023-02-12T17:26:38;-5.71;74.23
65369;HTU21D;51970;53.484;49.488;2023-02-12T17:29:05;-5.55;74.16
65369;HTU21D;51970;53.484;49.488;2023-02-12T17:31:33;-5.46;73.84
65369;HTU21D;51970;53.484;49.488;2023-02-12T17:34:01;-5.59;73.85
65369;HTU21D;51970;53.484;49.488;2023-02-12T17:36:27;-5.69;73.94
65369;HTU21D;51970;53.484;49.488;2023-02-12T17:38:54;-5.57;73.92
65369;HTU21D;51970;53.484;49.488;2023-02-12T17:41:21;-5.58;73.54
65369;HTU21D;51970;53.484;49.488;2023-02-12T17:43:49;-5.62;73.86
65369;HTU21D;51970;53.484;49.488;2023-02-12T17:46:18;-5.58;73.91
65369;HTU21D;51970;53.484;49.488;2023-02-12T17:48:45;-5.56;73.93
65369;HTU21D;51970;53.484;49.488;2023-02-12T17:51:12;-5.49;73.65
65369;HTU21D;51970;53.484;49.488;2023-02-12T17:53:39;-5.59;73.65
65369;HTU21D;51970;53.484;49.488;2023-02-12T17:56:14;-5.40;73.12
65369;HTU21D;51970;53.484;49.488;2023-02-12T17:58:41;-5.53;73.17
65369;HTU21D;51970;53.484;49.488;2023-02-12T18:01:11;-5.69;73.40
65369;HTU21D;51970;53.484;49.488;2023-02-12T18:03:38;-5.73;73.48
65369;HTU21D;51970;53.484;49.488;2023-02-12T18:06:04;-5.73;73.31
65369;HTU21D;51970;53.484;49.488;2023-02-12T18:08:31;-5.49;73.36
65369;HTU21D;51970;53.484;49.488;2023-02-12T18:11:01;-5.73;73.26
65369;HTU21D;51970;53.484;49.488;2023-02-12T18:13:30;-5.40;73.19
65369;HTU21D;51970;53.484;49.488;2023-02-12T18:15:57;-5.77;73.48
65369;HTU21D;51970;53.484;49.488;2023-02-12T18:18:23;-5.83;73.51
65369;HTU21D;51970;53.484;49.488;2023-02-12T18:20:50;-5.82;73.49
65369;HTU21D;51970;53.484;49.488;2023-02-12T18:23:17;-5.74;73.45